Time;durP1;ratioP1;P1;durP2;ratioP2;P2;SDS_P1;SDS_P2;PMS_P1;PMS_P2;Temp;Humidity;BMP_temperature;BMP_pressure;BME280_temperature;BME280_humidity;BME280_pressure;Samples;Min_cycle;Max_cycle;Signal;HPM_P1;HPM_P2
2021/12/30 00:00:23;;;;;;;31.05;6.53;;;;;;;8.95;98.19;100973.63;5094198;28;20035;-70
2021/12/30 00:02:48;;;;;;;34.83;6.75;;;;;;;9.03;98.68;100963.28;5094183;28;20063;-70
2021/12/30 00:05:14;;;;;;;32.35;6.28;;;;;;;9.10;98.23;100970.31;5094158;28;20028;-70
2021/12/30 00:07:41;;;;;;;30.35;6.40;;;;;;;9.14;99.14;100971.56;5094344;28;20032;-70
2021/12/30 00:10:06;;;;;;;37.72;7.50;;;;;;;9.17;99.14;100982.31;5094068;28;20030;-70
2021/12/30 00:12:32;;;;;;;36.40;7.82;;;;;;;9.16;98.95;100972.19;5075814;28;20390;-70
2021/12/30 00:14:57;;;;;;;33.30;7.70;;;;;;;9.26;98.92;100981.31;5093961;28;20482;-70
2021/12/30 00:17:23;;;;;;;33.22;7.78;;;;;;;9.29;98.69;100984.50;5093938;28;20028;-70
2021/12/30 00:19:48;;;;;;;31.88;7.32;;;;;;;9.35;98.50;100983.81;5094527;28;20111;-69
2021/12/30 00:22:13;;;;;;;30.33;7.43;;;;;;;9.33;97.96;100978.84;5075691;28;20448;-70
2021/12/30 00:24:39;;;;;;;31.27;8.25;;;;;;;9.36;98.62;100977.69;5093884;28;20024;-70
2021/12/30 00:27:04;;;;;;;30.08;7.25;;;;;;;9.43;98.60;100974.22;5075639;28;20126;-70
2021/12/30 00:29:30;;;;;;;34.03;7.57;;;;;;;9.43;98.68;100979.38;5094053;28;20074;-69
2021/12/30 00:31:55;;;;;;;40.28;8.80;;;;;;;9.46;98.61;100968.72;5093713;28;20059;-70
2021/12/30 00:34:20;;;;;;;35.17;8.23;;;;;;;9.47;98.94;100969.53;5075482;28;20020;-70
2021/12/30 00:36:46;;;;;;;34.97;8.30;;;;;;;9.49;98.83;100965.81;5093663;28;20016;-70
2021/12/30 00:39:11;;;;;;;39.45;9.10;;;;;;;9.54;99.11;100967.06;5075539;28;20069;-69
2021/12/30 00:41:37;;;;;;;43.20;8.60;;;;;;;9.61;98.93;100979.09;5093597;28;20038;-69
2021/12/30 00:44:02;;;;;;;41.97;7.97;;;;;;;9.62;99.17;100977.31;5093543;28;20077;-69
2021/12/30 00:46:28;;;;;;;38.58;7.95;;;;;;;9.67;98.78;100983.53;5075442;28;20085;-69
2021/12/30 00:48:53;;;;;;;37.08;7.75;;;;;;;9.68;98.88;100985.13;5075406;28;20016;-69
2021/12/30 00:51:19;;;;;;;51.40;8.10;;;;;;;9.73;98.91;100996.72;5093515;28;20531;-69
2021/12/30 00:53:44;;;;;;;35.30;7.85;;;;;;;9.71;98.85;100995.09;5075284;28;20115;-69
2021/12/30 00:56:10;;;;;;;39.97;7.88;;;;;;;9.74;98.82;100999.13;5075101;28;20101;-69
2021/12/30 00:58:35;;;;;;;35.63;7.57;;;;;;;9.77;99.23;100997.97;5075390;28;20012;-69
2021/12/30 01:01:03;;;;;;;42.63;8.32;;;;;;;9.80;99.12;101000.19;5097069;28;20425;-70
2021/12/30 01:03:28;;;;;;;45.20;7.72;;;;;;;9.81;98.76;101010.34;5079424;28;20043;-69
2021/12/30 01:05:54;;;;;;;34.72;7.20;;;;;;;9.86;99.29;101014.97;5097489;28;20470;-69
2021/12/30 01:08:19;;;;;;;43.13;7.07;;;;;;;9.91;98.84;101012.66;5097408;28;20067;-69
2021/12/30 01:10:44;;;;;;;44.83;7.28;;;;;;;9.90;98.38;101011.88;5097476;28;20024;-69
2021/12/30 01:13:16;;;;;;;45.53;7.18;;;;;;;9.91;98.83;101010.09;5097474;28;20020;-70
2021/12/30 01:15:58;;;;;;;40.50;7.05;;;;;;;9.94;98.67;101007.94;5097714;28;20027;-70
2021/12/30 01:18:56;;;;;;;35.73;6.70;;;;;;;9.97;98.72;101006.81;5097389;28;20068;-69
2021/12/30 01:21:25;;;;;;;40.70;6.93;;;;;;;9.97;98.95;101014.53;5097108;28;20031;-69
2021/12/30 01:23:51;;;;;;;41.28;6.82;;;;;;;10.06;99.07;101013.47;5078492;28;20074;-69
2021/12/30 01:26:16;;;;;;;46.00;7.78;;;;;;;10.09;99.15;101026.03;5096641;28;20024;-69
2021/12/30 01:28:42;;;;;;;41.92;7.10;;;;;;;10.13;98.90;101018.75;5096620;28;20024;-69
2021/12/30 01:31:09;;;;;;;38.90;6.65;;;;;;;10.22;98.91;101024.63;5096724;28;20089;-69
2021/12/30 01:33:38;;;;;;;43.55;7.30;;;;;;;10.26;99.21;101025.88;5078925;28;20098;-69
2021/12/30 01:36:04;;;;;;;39.95;6.90;;;;;;;10.27;98.97;101019.75;5097001;28;20466;-69
2021/12/30 01:38:29;;;;;;;46.30;7.60;;;;;;;10.29;98.99;101020.38;5096900;28;20027;-69
2021/12/30 01:40:57;;;;;;;40.60;7.15;;;;;;;10.29;99.35;101031.50;5078677;28;20024;-69
2021/12/30 01:43:22;;;;;;;48.17;7.97;;;;;;;10.36;99.46;101032.41;5097103;28;20082;-69
2021/12/30 01:45:48;;;;;;;40.28;7.32;;;;;;;10.38;99.17;101033.00;5078654;28;20020;-69
2021/12/30 01:48:14;;;;;;;47.65;8.30;;;;;;;10.50;99.41;101048.88;5078510;28;20024;-69
2021/12/30 01:50:40;;;;;;;40.88;7.25;;;;;;;10.53;99.19;101047.69;5078521;28;20020;-69
2021/12/30 01:53:06;;;;;;;33.85;7.57;;;;;;;10.51;99.39;101047.88;5096530;28;20107;-69
2021/12/30 01:55:34;;;;;;;44.45;8.18;;;;;;;10.54;99.51;101057.06;5096470;28;20051;-69
2021/12/30 01:58:00;;;;;;;38.50;7.10;;;;;;;10.59;99.21;101059.91;5078555;28;20032;-69
2021/12/30 02:00:27;;;;;;;37.10;7.47;;;;;;;10.65;99.37;101055.81;5096525;28;20099;-69
2021/12/30 02:02:52;;;;;;;39.47;8.60;;;;;;;10.64;99.07;101054.19;5078338;28;20032;-69
2021/12/30 02:05:18;;;;;;;34.78;8.07;;;;;;;10.66;99.08;101047.88;5096363;28;20467;-69
2021/12/30 02:07:44;;;;;;;33.78;7.55;;;;;;;10.61;99.48;101063.09;5096099;28;20028;-69
2021/12/30 02:10:12;;;;;;;38.42;8.23;;;;;;;10.65;99.87;101071.31;5078033;28;20027;-69
2021/12/30 02:12:38;;;;;;;34.63;8.60;;;;;;;10.67;99.77;101070.13;5096276;28;20028;-69
2021/12/30 02:15:11;;;;;;;31.77;8.13;;;;;;;10.72;99.77;101065.22;5096592;28;20415;-71
2021/12/30 02:17:37;;;;;;;30.90;8.65;;;;;;;10.75;99.87;101062.28;5096269;28;20129;-69
2021/12/30 02:20:30;;;;;;;33.85;8.85;;;;;;;10.81;99.69;101056.38;5096221;28;20051;-70
2021/12/30 02:22:55;;;;;;;;;;;;;;;10.78;100.00;101041.25;5095824;28;20046;-69
2021/12/30 02:25:21;;;;;;;31.43;8.60;;;;;;;10.80;100.00;101028.16;5077847;28;19908;-69
2021/12/30 02:27:46;;;;;;;33.35;9.45;;;;;;;10.86;99.99;101032.59;5095988;28;20755;-69
2021/12/30 02:30:11;;;;;;;37.20;9.75;;;;;;;10.88;100.00;101035.78;5095962;28;20108;-69
2021/12/30 02:32:37;;;;;;;37.38;9.30;;;;;;;10.88;100.00;101035.78;5077711;28;20111;-69
2021/12/30 02:35:02;;;;;;;35.63;10.02;;;;;;;10.88;100.00;101038.38;5095843;28;20474;-69
2021/12/30 02:37:28;;;;;;;34.83;10.00;;;;;;;10.93;100.00;101045.56;5096120;28;20103;-69
2021/12/30 02:39:54;;;;;;;33.25;10.30;;;;;;;10.97;100.00;101057.19;5077592;28;20027;-69
2021/12/30 02:42:22;;;;;;;29.33;9.63;;;;;;;11.00;99.88;101060.19;5077616;28;20459;-69
2021/12/30 02:44:48;;;;;;;25.33;9.85;;;;;;;11.00;100.00;101061.97;5095612;28;20052;-69
2021/12/30 02:47:14;;;;;;;28.80;10.13;;;;;;;11.01;100.00;101063.56;5077470;28;20492;-69
2021/12/30 02:49:40;;;;;;;30.20;10.45;;;;;;;11.00;100.00;101062.78;5077436;28;20505;-69
2021/12/30 02:52:06;;;;;;;29.25;10.85;;;;;;;11.03;100.00;101066.78;5095560;28;20165;-70
2021/12/30 02:54:31;;;;;;;29.80;10.50;;;;;;;11.04;100.00;101073.56;5095231;28;20510;-70
2021/12/30 02:56:56;;;;;;;38.70;10.80;;;;;;;11.05;100.00;101073.38;5095470;28;20020;-70
2021/12/30 02:59:21;;;;;;;27.95;9.45;;;;;;;11.06;100.00;101066.41;5077361;28;20036;-70
2021/12/30 03:01:47;;;;;;;31.15;10.18;;;;;;;11.09;100.00;101080.78;5095871;28;20020;-69
2021/12/30 03:04:12;;;;;;;31.05;10.27;;;;;;;11.13;100.00;101080.22;5095213;28;20024;-69
2021/12/30 03:06:38;;;;;;;29.85;10.25;;;;;;;11.14;100.00;101086.22;5094909;28;20498;-69
2021/12/30 03:09:05;;;;;;;26.55;9.63;;;;;;;11.14;100.00;101081.81;5094569;28;20451;-69
2021/12/30 03:11:30;;;;;;;25.98;9.57;;;;;;;11.14;100.00;101074.06;5076437;28;20454;-69
2021/12/30 03:13:56;;;;;;;27.55;9.52;;;;;;;11.12;100.00;101075.22;5094987;28;20020;-69
2021/12/30 03:16:24;;;;;;;28.38;9.57;;;;;;;11.18;100.00;101088.22;5095499;28;20481;-69
2021/12/30 03:18:51;;;;;;;23.25;9.13;;;;;;;11.21;100.00;101084.47;5094975;28;20047;-69
2021/12/30 03:21:19;;;;;;;21.70;8.98;;;;;;;11.14;100.00;101084.41;5076762;28;20102;-69
2021/12/30 03:23:44;;;;;;;27.80;10.30;;;;;;;11.13;100.00;101098.31;5094358;28;20016;-69
2021/12/30 03:26:10;;;;;;;28.05;10.30;;;;;;;11.16;100.00;101091.97;5076737;28;20020;-69
2021/12/30 03:28:39;;;;;;;20.17;9.07;;;;;;;11.16;100.00;101082.44;5094715;28;20024;-69
2021/12/30 03:31:05;;;;;;;24.17;10.18;;;;;;;11.20;100.00;101070.75;5094289;28;20107;-69
2021/12/30 03:33:31;;;;;;;21.92;9.73;;;;;;;11.21;100.00;101058.59;5094654;28;20020;-70
2021/12/30 03:36:00;;;;;;;23.70;10.20;;;;;;;11.20;100.00;101055.22;5076490;28;20103;-69
2021/12/30 03:38:28;;;;;;;25.27;10.05;;;;;;;11.21;100.00;101056.81;5094625;28;20369;-70
2021/12/30 03:40:53;;;;;;;22.67;10.18;;;;;;;11.23;100.00;101054.84;5094735;28;20107;-70
2021/12/30 03:43:18;;;;;;;21.63;9.73;;;;;;;11.30;100.00;101060.09;5094584;28;20052;-69
2021/12/30 03:45:44;;;;;;;19.23;9.73;;;;;;;11.25;100.00;101054.69;5095048;28;20079;-70
2021/12/30 03:48:10;;;;;;;22.05;9.70;;;;;;;11.25;100.00;101058.06;5094418;28;20423;-69
2021/12/30 03:50:42;;;;;;;26.83;9.57;;;;;;;11.24;100.00;101056.44;5076197;28;20020;-69
2021/12/30 03:53:08;;;;;;;21.02;9.18;;;;;;;11.28;100.00;101067.25;5094561;28;20028;-70
2021/12/30 03:55:33;;;;;;;15.60;8.43;;;;;;;11.31;100.00;101069.47;5075898;28;20082;-69
2021/12/30 03:57:58;;;;;;;17.52;8.95;;;;;;;11.34;100.00;101069.09;5094585;28;20073;-70
2021/12/30 04:00:26;;;;;;;25.17;8.52;;;;;;;11.30;100.00;101073.81;5076129;28;20441;-69
2021/12/30 04:02:51;;;;;;;20.83;8.80;;;;;;;11.33;100.00;101075.25;5094200;28;20162;-70
2021/12/30 04:05:18;;;;;;;16.17;7.90;;;;;;;11.34;100.00;101089.78;5094229;28;20051;-69
2021/12/30 04:07:43;;;;;;;19.98;8.30;;;;;;;11.25;100.00;101086.53;5094124;28;20036;-69
2021/12/30 04:10:12;;;;;;;16.90;8.95;;;;;;;11.28;100.00;101086.16;5094125;28;20024;-70
2021/12/30 04:12:38;;;;;;;18.27;9.20;;;;;;;11.28;100.00;101096.50;5094008;28;20092;-70
2021/12/30 04:15:04;;;;;;;18.20;9.00;;;;;;;11.25;100.00;101102.03;5094038;28;20024;-69
2021/12/30 04:17:29;;;;;;;20.58;9.35;;;;;;;11.28;100.00;101106.84;5094014;28;20175;-68
2021/12/30 04:19:55;;;;;;;18.45;9.10;;;;;;;11.28;100.00;101106.06;5075803;28;20107;-69
2021/12/30 04:22:20;;;;;;;23.33;9.27;;;;;;;11.33;100.00;101113.25;5094255;28;20466;-69
2021/12/30 04:24:46;;;;;;;20.50;9.25;;;;;;;11.28;100.00;101100.88;5093830;28;20028;-70
2021/12/30 04:27:12;;;;;;;23.45;9.38;;;;;;;11.28;100.00;101101.69;5093778;28;20035;-71
2021/12/30 04:29:37;;;;;;;17.45;8.13;;;;;;;11.30;100.00;101096.31;5093846;28;20032;-69
2021/12/30 04:32:03;;;;;;;20.27;8.80;;;;;;;11.29;100.00;101072.22;5093822;28;20031;-69
2021/12/30 04:34:28;;;;;;;18.58;8.40;;;;;;;11.34;100.00;101081.25;5092832;28;20028;-69
2021/12/30 04:36:58;;;;;;;13.15;7.15;;;;;;;11.24;100.00;101063.41;5094010;28;20069;-69
2021/12/30 04:39:27;;;;;;;11.85;6.80;;;;;;;11.29;100.00;101071.44;5093690;28;20121;-70
2021/12/30 04:41:52;;;;;;;13.73;6.82;;;;;;;11.23;100.00;101070.38;5093658;28;20024;-69
2021/12/30 04:44:17;;;;;;;16.00;6.65;;;;;;;11.32;100.00;101073.66;5075518;28;20026;-69
2021/12/30 04:46:43;;;;;;;12.80;6.35;;;;;;;11.27;100.00;101079.34;5093480;28;20026;-69
2021/12/30 04:49:08;;;;;;;16.98;7.07;;;;;;;11.32;100.00;101083.19;5093556;28;20380;-70
2021/12/30 04:51:33;;;;;;;15.88;6.88;;;;;;;11.30;100.00;101079.00;5093608;28;20435;-69
2021/12/30 04:53:58;;;;;;;13.75;6.10;;;;;;;11.26;100.00;101082.94;5093492;28;20028;-69
2021/12/30 04:56:24;;;;;;;11.38;6.32;;;;;;;11.28;100.00;101080.97;5075264;28;20135;-69
2021/12/30 04:58:49;;;;;;;13.07;6.47;;;;;;;11.34;100.00;101089.78;5075392;28;20019;-69
2021/12/30 05:01:14;;;;;;;13.38;5.85;;;;;;;11.29;100.00;101082.56;5093535;28;20024;-69
2021/12/30 05:03:40;;;;;;;9.38;5.38;;;;;;;11.35;100.00;101085.41;5093500;28;20024;-69
2021/12/30 05:06:05;;;;;;;12.60;5.65;;;;;;;11.30;100.00;101083.38;5093324;28;20103;-69
2021/12/30 05:08:30;;;;;;;10.95;5.88;;;;;;;11.32;100.00;101085.78;5093343;28;20378;-69
2021/12/30 05:10:56;;;;;;;10.48;6.28;;;;;;;11.29;100.00;101082.56;5093672;28;20032;-69
2021/12/30 05:13:21;;;;;;;16.50;7.95;;;;;;;11.33;100.00;101077.03;5075216;28;20036;-68
2021/12/30 05:15:47;;;;;;;18.35;8.80;;;;;;;11.37;100.00;101084.25;5075264;28;20119;-68
2021/12/30 05:18:14;;;;;;;18.13;9.38;;;;;;;11.39;100.00;101092.59;5075201;28;20094;-69
2021/12/30 05:20:40;;;;;;;18.08;9.50;;;;;;;11.41;100.00;101085.47;5075216;28;20077;-69
2021/12/30 05:23:06;;;;;;;21.83;10.30;;;;;;;11.47;100.00;101091.69;5093257;28;20036;-68
2021/12/30 05:25:32;;;;;;;23.85;10.60;;;;;;;11.46;100.00;101105.63;5093274;28;20038;-68
2021/12/30 05:27:58;;;;;;;26.38;10.90;;;;;;;11.42;100.00;101094.03;5093717;28;20021;-69
2021/12/30 05:30:23;;;;;;;31.55;11.80;;;;;;;11.51;100.00;101100.72;5075054;28;20030;-69
2021/12/30 05:32:52;;;;;;;23.15;12.15;;;;;;;11.51;100.00;101098.13;5093242;28;20026;-69
2021/12/30 05:35:17;;;;;;;29.13;12.60;;;;;;;11.46;100.00;101101.25;5093153;28;20067;-69
2021/12/30 05:37:43;;;;;;;25.08;11.73;;;;;;;11.50;100.00;101091.31;5093189;28;20048;-69
2021/12/30 05:40:13;;;;;;;23.02;10.73;;;;;;;11.52;100.00;101097.13;5093127;28;20157;-69
2021/12/30 05:42:38;;;;;;;22.58;10.75;;;;;;;11.55;100.00;101101.94;5093258;28;20024;-69
2021/12/30 05:45:04;;;;;;;22.60;9.98;;;;;;;11.57;100.00;101094.00;5093278;28;20065;-69
2021/12/30 05:47:30;;;;;;;25.60;10.65;;;;;;;11.58;100.00;101098.97;5096729;28;20059;-69
2021/12/30 05:49:55;;;;;;;25.63;11.13;;;;;;;11.58;100.00;101104.16;5078648;28;20035;-69
2021/12/30 05:52:21;;;;;;;23.80;10.00;;;;;;;11.54;100.00;101108.09;5096903;28;20030;-69
2021/12/30 05:54:46;;;;;;;26.50;9.60;;;;;;;11.55;100.00;101103.72;5096516;28;20101;-69
2021/12/30 05:57:12;;;;;;;22.05;9.85;;;;;;;11.47;100.00;101095.06;5078531;28;20031;-69
2021/12/30 05:59:37;;;;;;;20.30;9.15;;;;;;;11.51;100.00;101092.94;5097156;28;20106;-69
2021/12/30 06:02:03;;;;;;;21.73;9.75;;;;;;;11.53;100.00;101089.16;5078386;28;20492;-69
2021/12/30 06:04:28;;;;;;;25.40;9.82;;;;;;;11.55;100.00;101099.34;5096532;28;20020;-69
2021/12/30 06:06:54;;;;;;;20.38;9.18;;;;;;;11.52;100.00;101087.56;5078286;28;20475;-69
2021/12/30 06:09:24;;;;;;;24.63;10.02;;;;;;;11.50;100.00;101086.16;5096368;28;20032;-69
2021/12/30 06:11:51;;;;;;;22.25;8.57;;;;;;;11.39;100.00;101084.84;5097033;28;20028;-69
2021/12/30 06:14:16;;;;;;;20.77;7.90;;;;;;;11.47;100.00;101089.09;5096347;28;20442;-69
2021/12/30 06:16:41;;;;;;;22.45;7.97;;;;;;;11.57;100.00;101096.59;5078160;28;20066;-69
2021/12/30 06:19:07;;;;;;;17.40;7.20;;;;;;;11.48;100.00;101098.50;5096468;28;20054;-69
2021/12/30 06:21:32;;;;;;;16.73;7.05;;;;;;;11.51;100.00;101105.88;5096457;28;20020;-69
2021/12/30 06:23:57;;;;;;;20.65;8.27;;;;;;;11.54;100.00;101115.88;5096532;28;20031;-70
2021/12/30 06:26:23;;;;;;;16.42;8.30;;;;;;;11.54;100.00;101118.47;5096374;28;20130;-70
2021/12/30 06:28:48;;;;;;;20.23;9.07;;;;;;;11.59;100.00;101123.84;5096028;28;20107;-69
2021/12/30 06:31:14;;;;;;;16.83;8.05;;;;;;;11.60;100.00;101122.88;5077923;28;20027;-69
2021/12/30 06:33:40;;;;;;;15.35;8.00;;;;;;;11.58;100.00;101119.69;5077922;28;20020;-69
2021/12/30 06:36:06;;;;;;;17.55;7.15;;;;;;;11.57;100.00;101122.47;5077746;28;20032;-69
2021/12/30 06:38:32;;;;;;;15.65;6.90;;;;;;;11.59;100.00;101129.03;5095893;28;20047;-69
2021/12/30 06:40:58;;;;;;;14.60;6.50;;;;;;;11.67;100.00;101121.16;5095834;28;20020;-69
2021/12/30 06:43:23;;;;;;;15.82;6.53;;;;;;;11.66;100.00;101119.56;5096309;28;20081;-69
2021/12/30 06:45:48;;;;;;;16.42;6.10;;;;;;;11.61;100.00;101132.25;5095801;28;20016;-69
2021/12/30 06:48:15;;;;;;;11.18;4.85;;;;;;;11.65;100.00;101135.25;5095566;28;20028;-70
2021/12/30 06:50:42;;;;;;;15.13;5.28;;;;;;;11.68;100.00;101148.66;5077549;28;20030;-69
2021/12/30 06:53:07;;;;;;;14.20;5.10;;;;;;;11.70;100.00;101135.50;5095602;28;20382;-70
2021/12/30 06:55:32;;;;;;;11.50;4.63;;;;;;;11.72;100.00;101141.31;5095429;28;20135;-70
2021/12/30 06:57:58;;;;;;;12.77;4.78;;;;;;;11.75;100.00;101140.94;5076422;28;20030;-70
2021/12/30 07:00:23;;;;;;;10.10;4.32;;;;;;;11.72;100.00;101136.94;5095525;28;20020;-70
2021/12/30 07:02:49;;;;;;;16.80;4.72;;;;;;;11.74;100.00;101134.97;5095316;28;20029;-69
2021/12/30 07:05:14;;;;;;;10.18;4.60;;;;;;;11.75;100.00;101138.34;5077084;28;20020;-68
2021/12/30 07:07:41;;;;;;;13.23;5.50;;;;;;;11.72;100.00;101139.53;5076852;28;20030;-68
2021/12/30 07:10:06;;;;;;;18.52;5.80;;;;;;;11.73;100.00;101150.69;5076852;28;20035;-69
2021/12/30 07:12:32;;;;;;;9.68;4.65;;;;;;;11.72;100.00;101142.13;5095075;28;20382;-69
2021/12/30 07:14:57;;;;;;;10.95;4.80;;;;;;;11.72;100.00;101131.75;5095012;28;20046;-69
2021/12/30 07:17:26;;;;;;;14.30;5.60;;;;;;;11.74;100.00;101147.91;5094987;28;20059;-69
2021/12/30 07:19:51;;;;;;;13.63;5.47;;;;;;;11.73;100.00;101146.28;5094895;28;20078;-69
2021/12/30 07:22:16;;;;;;;10.73;4.97;;;;;;;11.67;100.00;101149.63;5094913;28;20382;-69
2021/12/30 07:24:42;;;;;;;10.85;5.45;;;;;;;11.64;100.00;101150.00;5076785;28;20115;-69
2021/12/30 07:27:07;;;;;;;9.90;5.30;;;;;;;11.65;100.00;101149.03;5095282;28;20107;-69
2021/12/30 07:29:32;;;;;;;12.90;5.35;;;;;;;11.67;100.00;101154.81;5094973;28;20062;-69
2021/12/30 07:31:57;;;;;;;10.02;4.90;;;;;;;11.60;100.00;101148.78;5094548;28;20459;-69
2021/12/30 07:34:23;;;;;;;12.32;4.40;;;;;;;11.56;100.00;101151.91;5094692;28;20027;-69
2021/12/30 07:36:48;;;;;;;10.00;4.60;;;;;;;11.55;100.00;101174.41;5094841;28;20099;-69
2021/12/30 07:39:13;;;;;;;7.75;4.47;;;;;;;11.55;100.00;101176.19;5076492;28;20023;-69
2021/12/30 07:41:39;;;;;;;7.75;3.78;;;;;;;11.52;100.00;101169.59;5094620;28;20020;-68
2021/12/30 07:44:05;;;;;;;5.70;3.80;;;;;;;11.53;100.00;101182.34;5093913;28;20028;-69
2021/12/30 07:46:31;;;;;;;6.22;3.38;;;;;;;11.60;100.00;101197.97;5093164;28;20024;-69
2021/12/30 07:48:56;;;;;;;9.38;3.88;;;;;;;11.60;100.00;101197.16;5093002;28;20474;-69
2021/12/30 07:51:21;;;;;;;8.63;4.18;;;;;;;11.59;100.00;101208.47;5093916;28;20031;-69
2021/12/30 07:53:47;;;;;;;11.43;4.40;;;;;;;11.63;100.00;101214.91;5094039;28;20024;-69
2021/12/30 07:56:12;;;;;;;13.10;4.55;;;;;;;11.62;100.00;101213.28;5094184;28;20055;-69
2021/12/30 07:58:37;;;;;;;10.50;4.63;;;;;;;11.59;100.00;101217.03;5076191;28;20073;-68
2021/12/30 08:01:03;;;;;;;15.57;4.93;;;;;;;11.57;100.00;101215.66;5093998;28;20490;-69
2021/12/30 08:03:28;;;;;;;15.80;5.65;;;;;;;11.54;100.00;101211.63;5093174;28;20491;-69
2021/12/30 08:05:53;;;;;;;19.33;5.97;;;;;;;11.56;100.00;101201.09;5092781;28;20462;-69
2021/12/30 08:08:19;;;;;;;16.90;5.53;;;;;;;11.59;100.00;101211.06;5092625;28;20028;-69
2021/12/30 08:10:44;;;;;;;15.70;5.10;;;;;;;11.57;100.00;101203.50;5094645;28;20571;-68
2021/12/30 08:13:10;;;;;;;16.30;5.63;;;;;;;11.58;100.00;101210.28;5094226;28;20043;-69
2021/12/30 08:15:35;;;;;;;18.95;5.72;;;;;;;11.61;100.00;101212.50;5075656;28;20072;-69
2021/12/30 08:18:02;;;;;;;19.92;5.93;;;;;;;11.63;100.00;101213.13;5075879;28;20106;-69
2021/12/30 08:20:27;;;;;;;19.13;5.25;;;;;;;11.67;100.00;101211.75;5076150;28;20024;-69
2021/12/30 08:22:53;;;;;;;19.23;5.70;;;;;;;11.74;99.44;101211.84;5075683;28;20028;-69
2021/12/30 08:25:20;;;;;;;18.35;4.85;;;;;;;11.75;99.51;101218.63;5075643;28;20081;-69
2021/12/30 08:27:46;;;;;;;12.82;4.50;;;;;;;11.80;98.81;101212.91;5094094;28;20024;-69
2021/12/30 08:30:15;;;;;;;16.35;4.47;;;;;;;11.81;98.83;101219.66;5093938;28;20154;-70
2021/12/30 08:32:42;;;;;;;15.63;4.13;;;;;;;11.86;98.82;101209.59;5093917;28;20066;-69
2021/12/30 08:35:09;;;;;;;20.00;5.13;;;;;;;11.87;98.88;101218.97;5094132;28;20485;-69
2021/12/30 08:37:35;;;;;;;20.15;4.57;;;;;;;11.81;99.04;101214.50;5075721;28;20390;-69
2021/12/30 08:40:02;;;;;;;16.10;4.53;;;;;;;11.81;98.97;101211.91;5093245;28;20026;-69
2021/12/30 08:42:29;;;;;;;25.45;5.07;;;;;;;11.83;99.06;101217.72;5092669;28;20140;-69
2021/12/30 08:44:57;;;;;;;20.45;4.78;;;;;;;11.81;98.68;101217.88;5092438;28;20024;-69
2021/12/30 08:47:23;;;;;;;21.50;5.25;;;;;;;11.82;98.90;101210.91;5092630;28;20035;-69
2021/12/30 08:49:49;;;;;;;17.25;4.25;;;;;;;11.80;98.46;101226.63;5092422;28;20072;-70
2021/12/30 08:52:17;;;;;;;26.48;5.13;;;;;;;11.78;99.11;101240.75;5092438;28;20016;-70
2021/12/30 08:54:43;;;;;;;23.52;4.35;;;;;;;11.80;98.72;101247.34;5074257;28;20048;-70
2021/12/30 08:57:09;;;;;;;21.58;4.10;;;;;;;11.78;98.93;101233.00;5075405;28;20031;-70
2021/12/30 08:59:35;;;;;;;25.02;4.80;;;;;;;11.82;98.56;101229.81;5093427;28;20051;-69
2021/12/30 09:02:03;;;;;;;22.35;4.38;;;;;;;11.82;98.83;101231.63;5093718;28;20463;-69
2021/12/30 09:04:28;;;;;;;20.42;4.68;;;;;;;11.85;97.84;101239.03;5093599;28;20028;-70
2021/12/30 09:06:53;;;;;;;23.85;4.53;;;;;;;11.86;98.01;101241.47;5093235;28;20043;-69
2021/12/30 09:09:19;;;;;;;29.55;5.05;;;;;;;11.86;97.64;101263.97;5093532;28;20038;-69
2021/12/30 09:11:45;;;;;;;25.23;4.78;;;;;;;11.86;97.70;101251.03;5093248;28;20360;-70
2021/12/30 09:14:13;;;;;;;28.48;4.50;;;;;;;11.85;97.57;101255.38;5093319;28;20028;-69
2021/12/30 09:16:39;;;;;;;27.05;5.03;;;;;;;11.87;97.91;101255.22;5075165;28;20056;-69
2021/12/30 09:19:04;;;;;;;21.85;4.20;;;;;;;11.80;97.83;101249.94;5075301;28;20040;-69
2021/12/30 09:21:29;;;;;;;25.20;4.57;;;;;;;11.95;97.26;101260.28;5077595;28;20024;-69
2021/12/30 09:23:55;;;;;;;26.42;4.78;;;;;;;11.86;97.62;101275.13;5097240;28;20027;-69
2021/12/30 09:26:20;;;;;;;33.53;5.13;;;;;;;11.87;97.59;101270.75;5096602;28;20081;-69
2021/12/30 09:28:46;;;;;;;32.03;5.38;;;;;;;11.88;97.41;101285.28;5097189;28;20384;-68
2021/12/30 09:31:11;;;;;;;37.13;5.53;;;;;;;11.94;97.24;101282.78;5097382;28;20031;-69
2021/12/30 09:33:37;;;;;;;25.60;4.50;;;;;;;11.94;96.95;101294.94;5097015;28;20016;-69
2021/12/30 09:36:02;;;;;;;27.55;4.63;;;;;;;11.93;96.36;101299.31;5078848;28;20076;-70
2021/12/30 09:38:28;;;;;;;32.45;5.55;;;;;;;12.00;96.09;101304.56;5097040;28;20020;-69
2021/12/30 09:40:54;;;;;;;31.33;5.00;;;;;;;11.97;95.54;101302.34;5096955;28;20073;-68
2021/12/30 09:43:19;;;;;;;33.20;5.20;;;;;;;11.98;96.30;101300.56;5096317;28;20032;-69
2021/12/30 09:45:45;;;;;;;25.27;4.30;;;;;;;11.99;95.64;101305.53;5095980;28;20020;-69
2021/12/30 09:48:13;;;;;;;33.53;4.15;;;;;;;12.00;96.09;101317.53;5095813;28;20028;-69
2021/12/30 09:50:46;;;;;;;32.70;4.60;;;;;;;11.98;96.25;101319.50;5077577;28;20024;-69
2021/12/30 09:53:11;;;;;;;24.70;4.30;;;;;;;12.01;95.80;101315.72;5095837;28;20028;-69
2021/12/30 09:55:37;;;;;;;39.00;5.55;;;;;;;12.11;95.32;101313.63;5095507;28;20440;-69
2021/12/30 09:58:03;;;;;;;33.83;4.43;;;;;;;12.09;95.48;101310.44;5096054;28;20028;-70
2021/12/30 10:00:30;;;;;;;22.80;3.83;;;;;;;12.07;95.60;101304.63;5078773;28;20015;-69
2021/12/30 10:02:56;;;;;;;26.98;4.13;;;;;;;12.12;95.49;101304.91;5097245;28;20097;-71
2021/12/30 10:05:27;;;;;;;19.55;3.95;;;;;;;12.13;95.29;101301.31;5096678;28;20016;-72
2021/12/30 10:08:17;;;;;;;34.63;5.03;;;;;;;12.20;95.00;101294.41;5096725;28;20035;-70
2021/12/30 10:10:46;;;;;;;23.27;4.22;;;;;;;12.20;95.49;101291.81;5078344;28;20036;-71
2021/12/30 10:13:19;;;;;;;25.00;3.83;;;;;;;12.26;94.99;101324.78;5096353;28;20052;-70
2021/12/30 10:15:47;;;;;;;23.92;4.45;;;;;;;12.17;94.89;101312.94;5078166;28;20024;-70
2021/12/30 10:18:13;;;;;;;24.75;4.57;;;;;;;12.24;94.86;101344.06;5096197;28;20528;-70
2021/12/30 10:20:40;;;;;;;26.45;4.25;;;;;;;12.25;94.83;101330.13;5096143;28;20032;-70
2021/12/30 10:23:14;;;;;;;27.75;4.30;;;;;;;12.10;95.32;101348.31;5095842;28;20024;-70
2021/12/30 10:25:43;;;;;;;26.08;4.93;;;;;;;12.07;95.34;101338.31;5095777;28;20026;-70
2021/12/30 10:28:27;;;;;;;30.27;4.97;;;;;;;11.98;96.59;101342.81;5095600;28;20711;-71
2021/12/30 10:31:12;;;;;;;27.52;4.35;;;;;;;12.07;96.07;101335.72;5095706;28;20434;-71
2021/12/30 10:33:44;;;;;;;27.85;4.93;;;;;;;12.03;96.54;101340.47;5093734;28;20743;-68
2021/12/30 10:36:18;;;;;;;30.42;5.35;;;;;;;11.98;96.42;101342.81;5095321;28;20496;-69
2021/12/30 10:38:43;;;;;;;29.40;5.38;;;;;;;11.95;96.97;101350.94;5094534;28;20024;-69
2021/12/30 10:41:09;;;;;;;26.60;5.20;;;;;;;11.88;97.43;101340.50;5076550;28;20024;-69
2021/12/30 10:43:45;;;;;;;32.17;5.18;;;;;;;11.91;97.55;101354.84;5094730;28;20028;-70
2021/12/30 10:46:17;;;;;;;29.35;5.40;;;;;;;11.92;97.59;101349.50;5094760;28;20332;-69
2021/12/30 10:48:54;;;;;;;31.33;5.07;;;;;;;11.92;97.54;101346.91;5094610;28;20051;-70
2021/12/30 10:51:23;;;;;;;26.23;5.13;;;;;;;11.95;97.41;101348.34;5094570;28;20024;-70
2021/12/30 10:53:51;;;;;;;25.25;4.38;;;;;;;12.01;97.39;101364.94;5076363;28;20115;-72
2021/12/30 10:56:22;;;;;;;24.40;4.97;;;;;;;12.00;97.23;101350.38;5094856;28;20048;-71
2021/12/30 10:58:48;;;;;;;22.30;4.63;;;;;;;11.97;97.08;101348.97;5095515;28;20047;-71
2021/12/30 11:01:19;;;;;;;31.50;5.05;;;;;;;12.04;96.82;101351.63;5077241;28;20141;-71
2021/12/30 11:03:56;;;;;;;30.45;4.50;;;;;;;12.00;96.77;101351.19;5095253;28;20024;-69
2021/12/30 11:06:22;;;;;;;23.08;4.30;;;;;;;12.05;96.59;101361.78;5094426;28;20020;-69
2021/12/30 11:09:02;;;;;;;30.83;4.18;;;;;;;12.01;96.85;101357.97;5075477;28;20035;-70
2021/12/30 11:11:29;;;;;;;22.30;4.05;;;;;;;11.95;96.99;101369.06;5076445;28;20363;-70